createdAt,value
2023-08-17T00:01:39.152Z,20.33
2023-08-17T00:04:05.837Z,20.33
2023-08-17T00:06:34.152Z,20.29
2023-08-17T00:09:00.813Z,20.27
2023-08-17T00:11:27.386Z,20.29
2023-08-17T00:13:53.904Z,20.23
2023-08-17T00:16:20.458Z,20.25
2023-08-17T00:18:47.017Z,20.09
2023-08-17T00:21:13.597Z,20.09
2023-08-17T00:23:41.604Z,19.97
2023-08-17T00:26:08.873Z,19.89
2023-08-17T00:28:35.418Z,19.91
2023-08-17T00:31:02.796Z,19.89
2023-08-17T00:33:29.602Z,19.87
2023-08-17T00:35:56.142Z,19.95
2023-08-17T00:38:22.752Z,19.94
2023-08-17T00:40:51.045Z,19.85
2023-08-17T00:43:17.561Z,19.79
2023-08-17T00:45:46.477Z,19.84
2023-08-17T00:48:13.640Z,19.90
2023-08-17T00:50:41.808Z,19.77
2023-08-17T00:53:09.564Z,19.74
2023-08-17T00:55:36.142Z,19.72
2023-08-17T00:58:04.653Z,19.68
2023-08-17T01:00:32.431Z,19.66
2023-08-17T01:02:59.168Z,19.67
2023-08-17T01:05:25.856Z,19.65
2023-08-17T01:07:52.362Z,19.67
2023-08-17T01:10:19.224Z,19.60
2023-08-17T01:12:54.521Z,19.49
2023-08-17T01:15:28.451Z,19.50
2023-08-17T01:17:59.272Z,19.46
2023-08-17T01:20:27.052Z,19.49
2023-08-17T01:22:56.986Z,19.47
2023-08-17T01:25:25.124Z,19.43
2023-08-17T01:27:51.697Z,19.35
2023-08-17T01:30:19.622Z,19.35
2023-08-17T01:32:52.182Z,19.35
2023-08-17T01:35:26.856Z,19.37
2023-08-17T01:37:56.151Z,19.31
2023-08-17T01:40:23.820Z,19.35
2023-08-17T01:42:52.776Z,19.36
2023-08-17T01:45:19.585Z,19.40
2023-08-17T01:47:46.133Z,19.38
2023-08-17T01:50:12.728Z,19.32
2023-08-17T01:52:39.522Z,19.31
2023-08-17T01:55:06.695Z,19.32
2023-08-17T01:57:33.244Z,19.29
2023-08-17T02:00:01.372Z,19.25
2023-08-17T02:02:27.944Z,19.26
2023-08-17T02:04:54.483Z,19.29
2023-08-17T02:07:21.023Z,19.32
2023-08-17T02:09:47.526Z,19.31
2023-08-17T02:12:14.091Z,19.20
2023-08-17T02:14:40.588Z,19.15
2023-08-17T02:17:08.475Z,19.22
2023-08-17T02:19:35.007Z,19.17
2023-08-17T02:22:03.662Z,19.20
2023-08-17T02:24:30.222Z,19.15
2023-08-17T02:26:56.806Z,19.11
2023-08-17T02:29:23.399Z,19.14
2023-08-17T02:31:49.949Z,19.05
2023-08-17T02:34:18.180Z,19.08
2023-08-17T02:36:44.718Z,19.05
2023-08-17T02:39:11.246Z,19.02
2023-08-17T02:41:37.824Z,19.05
2023-08-17T02:44:04.816Z,19.03
2023-08-17T02:46:31.639Z,19.00
2023-08-17T02:48:58.224Z,18.89
2023-08-17T02:51:26.167Z,18.87
2023-08-17T02:53:52.711Z,18.85
2023-08-17T02:56:19.257Z,18.86
2023-08-17T02:58:45.812Z,18.78
2023-08-17T03:01:12.342Z,18.78
2023-08-17T03:03:39.013Z,18.72
2023-08-17T03:06:06.058Z,18.72
2023-08-17T03:08:34.011Z,18.70
2023-08-17T03:11:00.755Z,18.78
2023-08-17T03:13:27.276Z,18.78
2023-08-17T03:15:55.129Z,18.73
2023-08-17T03:18:21.688Z,18.72
2023-08-17T03:20:48.266Z,18.76
2023-08-17T03:23:14.824Z,18.71
2023-08-17T03:25:42.711Z,18.70
2023-08-17T03:28:09.253Z,18.66
2023-08-17T03:30:35.859Z,18.67
2023-08-17T03:33:02.493Z,18.71
2023-08-17T03:35:29.175Z,18.67
2023-08-17T03:37:55.707Z,18.58
2023-08-17T03:40:22.265Z,18.51
2023-08-17T03:42:50.192Z,18.51
2023-08-17T03:45:16.865Z,18.48
2023-08-17T03:47:43.419Z,18.40
2023-08-17T03:50:10.623Z,18.43
2023-08-17T03:52:37.365Z,18.41
2023-08-17T03:55:04.235Z,18.33
2023-08-17T03:57:33.147Z,18.36
2023-08-17T04:00:02.120Z,18.35
2023-08-17T04:02:28.657Z,18.35
2023-08-17T04:04:55.347Z,18.36
2023-08-17T04:07:22.419Z,18.27
2023-08-17T04:09:49.134Z,18.29
2023-08-17T04:12:15.839Z,18.30
2023-08-17T04:14:42.388Z,18.24
2023-08-17T04:17:10.599Z,18.32
2023-08-17T04:19:37.144Z,18.31
2023-08-17T04:22:03.772Z,18.30
2023-08-17T04:24:30.536Z,18.29
2023-08-17T04:26:57.114Z,18.25
2023-08-17T04:29:23.889Z,18.32
2023-08-17T04:31:50.442Z,18.30
2023-08-17T04:34:18.405Z,18.23
2023-08-17T04:36:44.977Z,18.19
2023-08-17T04:39:11.499Z,18.27
2023-08-17T04:41:38.097Z,18.26
2023-08-17T04:44:05.259Z,18.29
2023-08-17T04:46:31.808Z,18.25
2023-08-17T04:48:58.369Z,18.20
2023-08-17T04:51:26.230Z,18.18
2023-08-17T04:53:52.767Z,18.24
2023-08-17T04:56:19.305Z,18.23
2023-08-17T04:58:45.874Z,18.19
2023-08-17T05:01:12.524Z,18.20
2023-08-17T05:03:39.366Z,18.21
2023-08-17T05:06:05.960Z,18.23
2023-08-17T05:08:33.896Z,18.22
2023-08-17T05:11:00.462Z,18.18
2023-08-17T05:13:27.027Z,18.26
2023-08-17T05:15:53.623Z,18.30
2023-08-17T05:18:20.228Z,18.30
2023-08-17T05:20:46.950Z,18.32
2023-08-17T05:23:13.643Z,18.30
2023-08-17T05:25:41.568Z,18.36
2023-08-17T05:28:08.171Z,18.36
2023-08-17T05:30:34.723Z,18.32
2023-08-17T05:33:01.313Z,18.32
2023-08-17T05:35:27.867Z,18.39
2023-08-17T05:37:54.402Z,18.36
2023-08-17T05:40:20.928Z,18.30
2023-08-17T05:42:48.986Z,18.37
2023-08-17T05:45:15.849Z,18.40
2023-08-17T05:47:42.498Z,18.37
2023-08-17T05:50:09.272Z,18.43
2023-08-17T05:52:35.798Z,18.42
2023-08-17T05:55:02.474Z,18.40
2023-08-17T05:57:29.229Z,18.43
2023-08-17T05:59:57.412Z,18.53
2023-08-17T06:02:24.146Z,18.50
2023-08-17T06:04:50.727Z,18.51
2023-08-17T06:07:17.316Z,18.54
2023-08-17T06:09:43.953Z,18.47
2023-08-17T06:12:10.524Z,18.50
2023-08-17T06:14:37.230Z,18.43
2023-08-17T06:17:05.215Z,18.48
2023-08-17T06:19:31.779Z,18.43
2023-08-17T06:21:58.343Z,18.45
2023-08-17T06:24:25.024Z,18.50
2023-08-17T06:26:51.705Z,18.52
2023-08-17T06:29:18.299Z,18.54
2023-08-17T06:31:44.943Z,18.59
2023-08-17T06:34:12.873Z,18.64
2023-08-17T06:36:39.708Z,18.66
2023-08-17T06:39:06.462Z,18.67
2023-08-17T06:41:33.054Z,18.70
2023-08-17T06:43:59.594Z,18.71
2023-08-17T06:46:26.380Z,18.72
2023-08-17T06:48:52.968Z,18.69
2023-08-17T06:51:21.046Z,18.75
2023-08-17T06:53:47.729Z,18.82
2023-08-17T06:56:14.445Z,18.87
2023-08-17T06:58:40.932Z,18.93
2023-08-17T07:01:07.486Z,19.00
2023-08-17T07:03:34.095Z,18.99
2023-08-17T07:06:00.711Z,19.00
2023-08-17T07:08:28.595Z,19.03
2023-08-17T07:10:55.161Z,19.04
2023-08-17T07:13:21.704Z,19.02
2023-08-17T07:15:48.273Z,19.03
2023-08-17T07:18:14.832Z,19.07
2023-08-17T07:20:41.345Z,19.13
2023-08-17T07:23:07.885Z,19.11
2023-08-17T07:25:35.921Z,19.11
2023-08-17T07:28:02.461Z,19.09
2023-08-17T07:30:29.103Z,19.14
2023-08-17T07:32:55.702Z,19.17
2023-08-17T07:35:22.319Z,19.18
2023-08-17T07:37:59.525Z,19.23
2023-08-17T07:40:30.522Z,19.25
2023-08-17T07:42:58.477Z,19.25
2023-08-17T07:45:25.101Z,19.22
2023-08-17T07:47:51.667Z,19.19
2023-08-17T07:50:18.301Z,19.22
2023-08-17T07:52:44.872Z,19.27
2023-08-17T07:55:11.486Z,19.19
2023-08-17T07:57:38.098Z,19.14
2023-08-17T08:00:07.445Z,19.19
2023-08-17T08:02:34.024Z,19.17
2023-08-17T08:05:00.673Z,19.19
2023-08-17T08:07:27.531Z,19.21
2023-08-17T08:09:54.368Z,19.20
2023-08-17T08:12:20.898Z,19.18
2023-08-17T08:14:47.461Z,19.27
2023-08-17T08:17:15.498Z,19.22
2023-08-17T08:19:42.060Z,19.13
2023-08-17T08:22:08.660Z,19.15
2023-08-17T08:24:37.888Z,19.13
2023-08-17T08:27:05.553Z,19.13
2023-08-17T08:29:32.099Z,19.11
2023-08-17T08:31:58.643Z,19.08
2023-08-17T08:34:26.709Z,19.08
2023-08-17T08:36:53.221Z,19.09
2023-08-17T08:39:19.829Z,19.07
2023-08-17T08:41:46.390Z,19.11
2023-08-17T08:44:13.181Z,19.16
2023-08-17T08:46:41.441Z,19.16
2023-08-17T08:49:12.064Z,19.11
2023-08-17T08:51:44.748Z,19.13
2023-08-17T08:54:14.644Z,19.12
2023-08-17T08:56:47.878Z,19.13
2023-08-17T08:59:16.107Z,19.11
2023-08-17T09:01:43.156Z,19.15
2023-08-17T09:04:09.829Z,19.20
2023-08-17T09:06:38.151Z,19.25
2023-08-17T09:09:08.214Z,19.34
2023-08-17T09:11:34.749Z,19.38
2023-08-17T09:14:01.428Z,19.35
2023-08-17T09:16:28.443Z,19.38
2023-08-17T09:18:55.040Z,19.36
2023-08-17T09:21:22.115Z,19.36
2023-08-17T09:23:51.997Z,19.44
2023-08-17T09:26:20.846Z,19.52
2023-08-17T09:28:47.408Z,19.48
2023-08-17T09:31:14.054Z,19.48
2023-08-17T09:33:45.343Z,19.54
2023-08-17T09:36:12.468Z,19.51
2023-08-17T09:38:39.174Z,19.53
2023-08-17T09:41:06.020Z,19.57
2023-08-17T09:43:34.613Z,19.64
2023-08-17T09:46:01.892Z,19.66
2023-08-17T09:48:32.847Z,19.67
2023-08-17T09:51:00.239Z,19.66
2023-08-17T09:53:26.956Z,19.65
2023-08-17T09:55:54.884Z,19.65
2023-08-17T09:58:21.480Z,19.69
2023-08-17T10:00:51.799Z,19.77
2023-08-17T10:03:20.353Z,19.77
2023-08-17T10:05:53.422Z,19.76
2023-08-17T10:08:22.658Z,19.80
2023-08-17T10:10:50.082Z,19.86
2023-08-17T10:13:25.531Z,19.91
2023-08-17T10:16:03.091Z,19.86
2023-08-17T10:18:45.949Z,19.87
2023-08-17T10:21:22.417Z,19.91
2023-08-17T10:23:49.590Z,19.87
2023-08-17T10:26:17.249Z,19.89
2023-08-17T10:28:45.430Z,19.97
2023-08-17T10:31:14.604Z,20.10
2023-08-17T10:33:41.709Z,20.23
2023-08-17T10:36:08.834Z,20.28
2023-08-17T10:38:35.373Z,20.37
2023-08-17T10:41:17.822Z,20.48
2023-08-17T10:43:55.489Z,20.56
2023-08-17T10:46:33.656Z,20.63
2023-08-17T10:49:03.761Z,20.58
2023-08-17T10:51:30.357Z,20.57
2023-08-17T10:53:59.833Z,20.51
2023-08-17T10:56:28.736Z,20.52
2023-08-17T10:58:55.303Z,20.60
2023-08-17T11:01:33.946Z,20.62
2023-08-17T11:04:10.543Z,20.68
2023-08-17T11:06:37.113Z,20.73
2023-08-17T11:09:07.933Z,20.68
2023-08-17T11:11:34.868Z,20.63
2023-08-17T11:14:01.464Z,20.69
2023-08-17T11:16:28.156Z,20.77
2023-08-17T11:18:56.120Z,20.83
2023-08-17T11:21:22.827Z,20.94
2023-08-17T11:23:49.453Z,21.14
2023-08-17T11:26:17.093Z,21.32
2023-08-17T11:28:43.937Z,21.35
2023-08-17T11:31:12.338Z,21.34
2023-08-17T11:33:40.219Z,21.29
2023-08-17T11:36:09.247Z,21.17
2023-08-17T11:38:37.763Z,21.07
2023-08-17T11:41:04.842Z,20.97
2023-08-17T11:43:33.616Z,20.94
2023-08-17T11:46:01.743Z,20.97
2023-08-17T11:48:29.077Z,20.93
2023-08-17T11:50:55.742Z,20.83
2023-08-17T11:53:23.734Z,20.87
2023-08-17T11:55:55.573Z,20.83
2023-08-17T11:58:37.337Z,20.81
2023-08-17T12:01:04.183Z,20.75
2023-08-17T12:03:30.868Z,20.79
2023-08-17T12:05:58.440Z,20.73
2023-08-17T12:08:26.624Z,20.69
2023-08-17T12:10:53.451Z,20.61
2023-08-17T12:13:20.115Z,20.59
2023-08-17T12:15:46.690Z,20.58
2023-08-17T12:18:13.232Z,20.60
2023-08-17T12:20:41.432Z,20.58
2023-08-17T12:23:09.195Z,20.62
2023-08-17T12:25:37.120Z,20.63
2023-08-17T12:28:04.265Z,20.68
2023-08-17T12:30:32.917Z,20.71
2023-08-17T12:32:59.527Z,20.74
2023-08-17T12:35:26.596Z,20.76
2023-08-17T12:37:55.223Z,20.81
2023-08-17T12:40:23.138Z,20.91
2023-08-17T12:42:51.299Z,20.96
2023-08-17T12:45:18.175Z,21.01
2023-08-17T12:47:44.764Z,21.02
2023-08-17T12:50:11.366Z,21.00
2023-08-17T12:52:38.024Z,21.00
2023-08-17T12:55:05.106Z,20.99
2023-08-17T12:57:31.853Z,20.98
2023-08-17T12:59:59.790Z,20.99
2023-08-17T13:02:26.619Z,21.06
2023-08-17T13:04:53.421Z,21.13
2023-08-17T13:07:19.983Z,21.14
2023-08-17T13:09:46.910Z,21.14
2023-08-17T13:12:13.585Z,21.18
2023-08-17T13:14:40.223Z,21.19
2023-08-17T13:17:08.560Z,21.20
2023-08-17T13:19:35.456Z,21.23
2023-08-17T13:22:02.207Z,21.23
2023-08-17T13:24:28.952Z,21.19
2023-08-17T13:26:55.523Z,21.17
2023-08-17T13:29:22.368Z,21.16
2023-08-17T13:31:49.121Z,21.13
2023-08-17T13:34:17.019Z,21.12
2023-08-17T13:36:43.688Z,21.10
2023-08-17T13:39:10.254Z,21.15
2023-08-17T13:41:36.861Z,21.15
2023-08-17T13:44:03.797Z,21.14
2023-08-17T13:46:30.716Z,21.11
2023-08-17T13:48:57.284Z,21.05
2023-08-17T13:51:25.206Z,21.07
2023-08-17T13:53:51.760Z,21.12
2023-08-17T13:56:18.417Z,21.14
2023-08-17T13:58:45.018Z,21.10
2023-08-17T14:01:11.638Z,21.09
2023-08-17T14:03:38.308Z,21.07
2023-08-17T14:06:05.036Z,21.10
2023-08-17T14:08:32.986Z,21.13
2023-08-17T14:10:59.609Z,21.13
2023-08-17T14:13:26.141Z,21.12
2023-08-17T14:15:52.949Z,21.06
2023-08-17T14:18:19.710Z,21.02
2023-08-17T14:20:46.241Z,20.95
2023-08-17T14:23:12.792Z,20.93
2023-08-17T14:25:40.711Z,20.93
2023-08-17T14:28:08.018Z,20.95
2023-08-17T14:30:34.969Z,20.92
2023-08-17T14:33:01.841Z,20.89
2023-08-17T14:35:28.808Z,20.90
2023-08-17T14:37:55.401Z,20.84
2023-08-17T14:40:22.091Z,20.82
2023-08-17T14:42:54.433Z,20.81
2023-08-17T14:45:21.315Z,20.83
2023-08-17T14:47:47.863Z,20.84
2023-08-17T14:50:14.426Z,20.88
2023-08-17T14:52:41.041Z,20.91
2023-08-17T14:55:08.496Z,20.95
2023-08-17T14:57:35.200Z,20.99
2023-08-17T15:00:03.909Z,21.03
2023-08-17T15:02:31.099Z,21.05
2023-08-17T15:04:57.692Z,21.02
2023-08-17T15:07:24.487Z,21.02
2023-08-17T15:09:51.361Z,20.99
2023-08-17T15:12:17.907Z,20.97
2023-08-17T15:14:44.443Z,20.94
2023-08-17T15:17:12.342Z,20.91
2023-08-17T15:19:41.045Z,20.91
2023-08-17T15:22:08.299Z,20.91
2023-08-17T15:24:34.975Z,20.87
2023-08-17T15:27:01.582Z,20.90
2023-08-17T15:29:28.204Z,20.87
2023-08-17T15:31:54.725Z,20.87
2023-08-17T15:34:23.001Z,20.80
2023-08-17T15:36:49.521Z,20.76
2023-08-17T15:39:16.042Z,20.76
2023-08-17T15:41:42.572Z,20.78
2023-08-17T15:44:09.591Z,20.74
2023-08-17T15:46:36.181Z,20.74
2023-08-17T15:49:02.870Z,20.74
2023-08-17T15:51:30.788Z,20.76
2023-08-17T15:53:57.296Z,20.78
2023-08-17T15:56:23.951Z,20.77
2023-08-17T15:58:50.720Z,20.80
2023-08-17T16:01:17.333Z,20.82
2023-08-17T16:03:45.745Z,20.78
2023-08-17T16:06:12.537Z,20.75
2023-08-17T16:08:48.740Z,20.70
2023-08-17T16:11:16.824Z,20.76
2023-08-17T16:13:46.653Z,20.74
2023-08-17T16:16:13.626Z,20.75
2023-08-17T16:18:40.408Z,20.76
2023-08-17T16:21:13.898Z,20.66
2023-08-17T16:23:42.535Z,20.65
2023-08-17T16:26:09.215Z,20.64
2023-08-17T16:28:35.790Z,20.65
2023-08-17T16:31:05.216Z,20.59
2023-08-17T16:33:32.433Z,20.67
2023-08-17T16:35:59.075Z,20.68
2023-08-17T16:38:25.660Z,20.74
2023-08-17T16:40:53.503Z,20.75
2023-08-17T16:43:19.996Z,20.75
2023-08-17T16:45:46.642Z,20.78
2023-08-17T16:48:13.281Z,20.81
2023-08-17T16:50:40.010Z,20.85
2023-08-17T16:53:06.808Z,20.79
2023-08-17T16:55:33.400Z,20.82
2023-08-17T16:58:01.395Z,20.79
2023-08-17T17:00:27.969Z,20.78
2023-08-17T17:02:54.553Z,20.85
2023-08-17T17:05:21.206Z,20.88
2023-08-17T17:07:47.752Z,20.88
2023-08-17T17:10:14.292Z,20.81
2023-08-17T17:12:40.844Z,20.75
2023-08-17T17:15:09.695Z,20.71
2023-08-17T17:17:36.260Z,20.74
2023-08-17T17:20:03.379Z,20.65
2023-08-17T17:22:29.988Z,20.62
2023-08-17T17:24:56.674Z,20.56
2023-08-17T17:27:23.254Z,20.57
2023-08-17T17:29:49.825Z,20.48
2023-08-17T17:32:17.738Z,20.50
2023-08-17T17:34:44.240Z,20.50
2023-08-17T17:37:10.831Z,20.47
2023-08-17T17:39:37.343Z,20.45
2023-08-17T17:42:04.224Z,20.50
2023-08-17T17:44:30.779Z,20.46
2023-08-17T17:46:57.471Z,20.35
2023-08-17T17:49:25.360Z,20.38
2023-08-17T17:51:51.905Z,20.37
2023-08-17T17:54:18.410Z,20.32
2023-08-17T17:56:45.688Z,20.24
2023-08-17T17:59:12.563Z,20.21
2023-08-17T18:01:39.190Z,20.23
2023-08-17T18:04:06.146Z,20.21
2023-08-17T18:06:35.290Z,20.18
2023-08-17T18:09:01.962Z,20.15
2023-08-17T18:11:28.488Z,20.13
2023-08-17T18:13:54.991Z,20.13
2023-08-17T18:16:21.700Z,20.12
2023-08-17T18:18:48.293Z,20.10
2023-08-17T18:21:14.870Z,20.08
2023-08-17T18:23:42.788Z,20.04
2023-08-17T18:26:09.414Z,19.99
2023-08-17T18:28:35.968Z,20.00
2023-08-17T18:31:02.544Z,19.99
2023-08-17T18:33:29.099Z,19.96
2023-08-17T18:35:55.783Z,19.95
2023-08-17T18:38:22.729Z,19.91
2023-08-17T18:40:52.385Z,19.90
2023-08-17T18:43:20.607Z,19.91
2023-08-17T18:45:47.171Z,19.86
2023-08-17T18:48:13.822Z,19.85
2023-08-17T18:50:40.463Z,19.85
2023-08-17T18:53:08.048Z,19.81
2023-08-17T18:55:34.657Z,19.80
2023-08-17T18:58:02.528Z,19.76
2023-08-17T19:00:29.167Z,19.77
2023-08-17T19:02:55.801Z,19.77
2023-08-17T19:05:22.617Z,19.76
2023-08-17T19:07:49.181Z,19.72
2023-08-17T19:10:16.621Z,19.67
2023-08-17T19:12:43.348Z,19.63
2023-08-17T19:15:11.552Z,19.65
2023-08-17T19:17:38.386Z,19.63
2023-08-17T19:20:06.546Z,19.65
2023-08-17T19:22:33.099Z,19.66
2023-08-17T19:25:00.825Z,19.62
2023-08-17T19:27:29.360Z,19.62
2023-08-17T19:29:56.243Z,19.63
2023-08-17T19:32:24.231Z,19.61
2023-08-17T19:34:50.739Z,19.61
2023-08-17T19:37:17.299Z,19.59
2023-08-17T19:39:43.864Z,19.60
2023-08-17T19:42:10.622Z,19.61
2023-08-17T19:44:37.158Z,19.59
2023-08-17T19:47:03.829Z,19.56
2023-08-17T19:49:31.717Z,19.58
2023-08-17T19:51:58.229Z,19.56
2023-08-17T19:54:24.749Z,19.55
2023-08-17T19:56:51.277Z,19.53
2023-08-17T19:59:18.264Z,19.52
2023-08-17T20:01:46.682Z,19.51
2023-08-17T20:04:13.286Z,19.52
2023-08-17T20:06:41.177Z,19.49
2023-08-17T20:09:08.214Z,19.50
2023-08-17T20:11:35.095Z,19.47
2023-08-17T20:14:01.693Z,19.50
2023-08-17T20:16:28.242Z,19.48
2023-08-17T20:18:54.904Z,19.47
2023-08-17T20:21:21.559Z,19.44
2023-08-17T20:23:49.566Z,19.43
2023-08-17T20:26:16.143Z,19.44
2023-08-17T20:28:42.680Z,19.45
2023-08-17T20:31:09.261Z,19.46
2023-08-17T20:33:35.843Z,19.44
2023-08-17T20:36:02.385Z,19.47
2023-08-17T20:38:29.021Z,19.46
2023-08-17T20:40:56.949Z,19.47
2023-08-17T20:43:23.540Z,19.46
2023-08-17T20:45:50.081Z,19.47
2023-08-17T20:48:16.668Z,19.45
2023-08-17T20:50:43.916Z,19.45
2023-08-17T20:53:10.923Z,19.45
2023-08-17T20:55:40.098Z,19.44
2023-08-17T20:58:08.513Z,19.40
2023-08-17T21:00:35.456Z,19.41
2023-08-17T21:03:02.420Z,19.40
2023-08-17T21:05:29.157Z,19.42
2023-08-17T21:07:56.017Z,19.40
2023-08-17T21:10:23.198Z,19.39
2023-08-17T21:12:49.911Z,19.39
2023-08-17T21:15:17.880Z,19.42
2023-08-17T21:17:45.401Z,19.40
2023-08-17T21:20:12.369Z,19.40
2023-08-17T21:22:47.550Z,19.39
2023-08-17T21:25:14.316Z,19.39
2023-08-17T21:27:40.869Z,19.42
2023-08-17T21:30:08.287Z,19.42
2023-08-17T21:32:36.229Z,19.44
2023-08-17T21:35:02.789Z,19.43
2023-08-17T21:37:29.761Z,19.44
2023-08-17T21:39:56.737Z,19.40
2023-08-17T21:42:23.252Z,19.42
2023-08-17T21:44:50.206Z,19.43
2023-08-17T21:47:17.108Z,19.40
2023-08-17T21:49:47.121Z,19.41
2023-08-17T21:52:13.818Z,19.37
2023-08-17T21:54:40.401Z,19.35
2023-08-17T21:57:06.934Z,19.36
2023-08-17T21:59:33.596Z,19.37
2023-08-17T22:02:00.247Z,19.37
2023-08-17T22:04:26.833Z,19.36
2023-08-17T22:06:54.729Z,19.35
2023-08-17T22:09:21.264Z,19.33
2023-08-17T22:11:47.794Z,19.32
2023-08-17T22:14:14.277Z,19.29
2023-08-17T22:16:40.833Z,19.24
2023-08-17T22:19:07.408Z,19.19
2023-08-17T22:21:33.974Z,19.16
2023-08-17T22:24:01.901Z,19.12
2023-08-17T22:26:28.467Z,19.07
2023-08-17T22:28:55.014Z,19.04
2023-08-17T22:31:21.621Z,19.03
2023-08-17T22:33:48.186Z,19.02
2023-08-17T22:36:14.690Z,19.01
2023-08-17T22:38:41.219Z,19.02
2023-08-17T22:41:09.212Z,19.02
2023-08-17T22:43:35.787Z,19.03
2023-08-17T22:46:03.407Z,19.03
2023-08-17T22:48:30.027Z,19.03
2023-08-17T22:50:56.546Z,19.05
2023-08-17T22:53:23.145Z,19.03
2023-08-17T22:55:49.898Z,19.03
2023-08-17T22:58:17.930Z,19.01
2023-08-17T23:00:44.556Z,18.99
2023-08-17T23:03:11.240Z,18.97
2023-08-17T23:05:37.813Z,18.99
2023-08-17T23:08:04.840Z,18.98
2023-08-17T23:10:31.432Z,18.98
2023-08-17T23:12:58.028Z,19.00
2023-08-17T23:15:26.134Z,18.97
2023-08-17T23:17:52.708Z,18.98
2023-08-17T23:20:19.572Z,18.96
2023-08-17T23:22:46.088Z,18.96
2023-08-17T23:25:12.646Z,18.99
2023-08-17T23:27:39.827Z,18.97
2023-08-17T23:30:07.654Z,18.96
2023-08-17T23:32:35.786Z,18.94
2023-08-17T23:35:02.557Z,18.92
2023-08-17T23:37:29.231Z,18.91
2023-08-17T23:39:56.081Z,18.91
2023-08-17T23:42:22.621Z,18.90
2023-08-17T23:44:49.155Z,18.90
2023-08-17T23:47:15.690Z,18.88
2023-08-17T23:49:43.545Z,18.86
2023-08-17T23:52:10.103Z,18.88
2023-08-17T23:54:36.708Z,18.83
2023-08-17T23:57:03.316Z,18.81
2023-08-17T23:59:29.988Z,18.81
